createdAt,value
2023-04-16T00:01:49.722Z,85.75
2023-04-16T00:04:21.706Z,86.18
2023-04-16T00:06:53.308Z,86.02
2023-04-16T00:09:25.275Z,86.19
2023-04-16T00:11:58.980Z,86.40
2023-04-16T00:14:31.043Z,86.43
2023-04-16T00:17:03.028Z,86.59
2023-04-16T00:19:34.666Z,86.44
2023-04-16T00:22:06.593Z,86.92
2023-04-16T00:24:38.541Z,86.59
2023-04-16T00:27:11.478Z,86.98
2023-04-16T00:29:43.319Z,86.93
2023-04-16T00:32:15.543Z,87.07
2023-04-16T00:34:47.195Z,86.66
2023-04-16T00:37:18.967Z,86.51
2023-04-16T00:39:51.298Z,86.66
2023-04-16T00:42:24.545Z,87.05
2023-04-16T00:44:56.433Z,86.60
2023-04-16T00:47:28.923Z,86.40
2023-04-16T00:50:00.541Z,87.16
2023-04-16T00:52:33.551Z,87.05
2023-04-16T00:55:05.695Z,86.36
2023-04-16T00:57:38.597Z,86.13
2023-04-16T01:00:10.862Z,86.13
2023-04-16T01:02:43.432Z,85.96
2023-04-16T01:05:15.415Z,85.99
2023-04-16T01:07:47.217Z,86.27
2023-04-16T01:10:19.044Z,86.52
2023-04-16T01:12:51.976Z,86.03
2023-04-16T01:15:23.926Z,86.09
2023-04-16T01:17:56.128Z,86.11
2023-04-16T01:20:27.850Z,85.49
2023-04-16T01:23:01.035Z,85.84
2023-04-16T01:25:32.920Z,85.71
2023-04-16T01:28:04.800Z,86.15
2023-04-16T01:30:36.645Z,85.28
2023-04-16T01:33:10.192Z,85.33
2023-04-16T01:35:42.284Z,85.34
2023-04-16T01:38:15.958Z,85.45
2023-04-16T01:40:47.601Z,85.76
2023-04-16T01:43:19.450Z,86.34
2023-04-16T01:45:51.338Z,85.64
2023-04-16T01:48:23.204Z,85.71
2023-04-16T01:50:55.061Z,85.67
2023-04-16T01:53:28.260Z,86.26
2023-04-16T01:56:00.189Z,86.55
2023-04-16T01:58:35.412Z,86.12
2023-04-16T02:01:08.395Z,86.05
2023-04-16T02:03:43.368Z,86.01
2023-04-16T02:06:15.011Z,86.05
2023-04-16T02:08:48.069Z,86.71
2023-04-16T02:11:19.869Z,86.48
2023-04-16T02:13:51.702Z,86.56
2023-04-16T02:16:24.005Z,86.52
2023-04-16T02:18:55.993Z,87.08
2023-04-16T02:21:27.846Z,86.77
2023-04-16T02:24:01.017Z,86.22
2023-04-16T02:26:33.199Z,86.73
2023-04-16T02:29:04.814Z,86.57
2023-04-16T02:31:36.749Z,86.47
2023-04-16T02:34:08.478Z,86.41
2023-04-16T02:36:40.395Z,86.28
2023-04-16T02:39:13.525Z,86.40
2023-04-16T02:41:45.535Z,86.40
2023-04-16T02:44:17.092Z,86.48
2023-04-16T02:46:49.061Z,86.76
2023-04-16T02:49:20.842Z,86.87
2023-04-16T02:51:52.665Z,86.83
2023-04-16T02:54:25.667Z,86.47
2023-04-16T02:56:57.801Z,86.53
2023-04-16T02:59:29.366Z,86.98
2023-04-16T03:02:01.247Z,86.46
2023-04-16T03:04:33.677Z,86.66
2023-04-16T03:07:05.283Z,86.74
2023-04-16T03:09:38.211Z,87.01
2023-04-16T03:12:11.037Z,87.15
2023-04-16T03:14:42.951Z,86.29
2023-04-16T03:17:14.778Z,86.95
2023-04-16T03:19:46.588Z,87.18
2023-04-16T03:22:18.719Z,86.47
2023-04-16T03:24:52.549Z,86.28
2023-04-16T03:27:24.180Z,86.48
2023-04-16T03:29:55.985Z,86.87
2023-04-16T03:32:27.899Z,86.23
2023-04-16T03:34:59.897Z,86.35
2023-04-16T03:37:31.949Z,85.74
2023-04-16T03:40:05.441Z,86.41
2023-04-16T03:42:37.028Z,86.62
2023-04-16T03:45:11.004Z,86.70
2023-04-16T03:47:42.936Z,86.86
2023-04-16T03:50:15.637Z,86.89
2023-04-16T03:52:49.342Z,87.25
2023-04-16T03:55:22.529Z,87.30
2023-04-16T03:57:54.424Z,87.17
2023-04-16T04:00:26.260Z,87.71
2023-04-16T04:02:58.399Z,87.29
2023-04-16T04:05:30.151Z,87.15
2023-04-16T04:08:02.080Z,87.05
2023-04-16T04:10:37.066Z,87.78
2023-04-16T04:13:10.459Z,87.75
2023-04-16T04:15:42.391Z,88.00
2023-04-16T04:18:14.414Z,87.49
2023-04-16T04:20:47.215Z,87.49
2023-04-16T04:23:19.069Z,87.30
2023-04-16T04:25:52.288Z,86.94
2023-04-16T04:28:24.260Z,87.80
2023-04-16T04:30:56.082Z,87.83
2023-04-16T04:33:28.051Z,88.02
2023-04-16T04:35:59.839Z,87.89
2023-04-16T04:38:31.758Z,87.75
2023-04-16T04:41:04.689Z,87.24
2023-04-16T04:43:36.626Z,87.50
2023-04-16T04:46:08.483Z,87.71
2023-04-16T04:48:40.429Z,87.33
2023-04-16T04:51:12.233Z,87.69
2023-04-16T04:53:44.073Z,88.03
2023-04-16T04:56:17.077Z,87.88
2023-04-16T04:58:50.694Z,87.22
2023-04-16T05:01:22.387Z,87.25
2023-04-16T05:03:54.262Z,87.55
2023-04-16T05:06:29.057Z,87.59
2023-04-16T05:09:01.536Z,86.87
2023-04-16T05:11:34.550Z,87.19
2023-04-16T05:14:06.392Z,86.86
2023-04-16T05:16:39.325Z,87.34
2023-04-16T05:19:11.545Z,86.77
2023-04-16T05:21:43.555Z,86.94
2023-04-16T05:24:15.366Z,86.77
2023-04-16T05:26:48.517Z,86.85
2023-04-16T05:29:20.449Z,86.95
2023-04-16T05:31:52.364Z,87.21
2023-04-16T05:34:24.234Z,87.34
2023-04-16T05:36:56.077Z,86.98
2023-04-16T05:39:28.069Z,87.59
2023-04-16T05:42:01.506Z,87.46
2023-04-16T05:44:33.077Z,87.14
2023-04-16T05:47:04.906Z,87.03
2023-04-16T05:49:37.312Z,87.18
2023-04-16T05:52:09.186Z,87.24
2023-04-16T05:54:41.028Z,87.71
2023-04-16T05:57:14.200Z,87.03
2023-04-16T05:59:46.100Z,87.00
2023-04-16T06:02:18.477Z,87.35
2023-04-16T06:04:50.778Z,86.85
2023-04-16T06:07:22.421Z,86.92
2023-04-16T06:09:54.305Z,87.05
2023-04-16T06:12:27.191Z,87.63
2023-04-16T06:14:59.057Z,86.78
2023-04-16T06:17:31.049Z,87.35
2023-04-16T06:20:02.862Z,87.33
2023-04-16T06:22:34.766Z,87.23
2023-04-16T06:25:06.718Z,87.50
2023-04-16T06:27:39.795Z,87.69
2023-04-16T06:30:16.325Z,87.44
2023-04-16T06:32:48.396Z,87.53
2023-04-16T06:35:20.569Z,87.02
2023-04-16T06:37:52.161Z,87.07
2023-04-16T06:40:24.179Z,86.85
2023-04-16T06:42:57.194Z,86.52
2023-04-16T06:45:29.053Z,87.07
2023-04-16T06:48:01.454Z,86.53
2023-04-16T06:50:33.511Z,86.58
2023-04-16T06:53:05.356Z,87.00
2023-04-16T06:55:37.179Z,87.13
2023-04-16T06:58:10.130Z,86.29
2023-04-16T07:00:42.107Z,86.72
2023-04-16T07:03:14.108Z,86.41
2023-04-16T07:05:45.839Z,86.37
2023-04-16T07:08:17.647Z,86.20
2023-04-16T07:10:49.524Z,86.60
2023-04-16T07:13:22.547Z,85.87
2023-04-16T07:15:54.392Z,86.24
2023-04-16T07:18:26.306Z,85.69
2023-04-16T07:20:58.376Z,85.72
2023-04-16T07:23:29.963Z,86.28
2023-04-16T07:26:01.878Z,86.26
2023-04-16T07:28:34.923Z,85.62
2023-04-16T07:31:07.033Z,85.69
2023-04-16T07:33:39.170Z,85.65
2023-04-16T07:36:12.313Z,85.60
2023-04-16T07:38:43.976Z,85.66
2023-04-16T07:41:15.857Z,85.03
2023-04-16T07:43:49.056Z,85.00
2023-04-16T07:46:21.169Z,85.89
2023-04-16T07:48:52.968Z,85.07
2023-04-16T07:51:24.799Z,85.34
2023-04-16T07:53:56.683Z,85.39
2023-04-16T07:56:28.630Z,85.02
2023-04-16T07:59:14.492Z,85.14
2023-04-16T08:01:53.545Z,85.05
2023-04-16T08:04:26.298Z,84.83
2023-04-16T08:06:58.452Z,84.81
2023-04-16T08:09:31.806Z,84.58
2023-04-16T08:12:05.736Z,84.51
2023-04-16T08:14:38.738Z,84.65
2023-04-16T08:17:10.612Z,84.69
2023-04-16T08:19:43.146Z,84.87
2023-04-16T08:22:16.635Z,84.14
2023-04-16T08:24:48.559Z,84.13
2023-04-16T08:27:20.582Z,83.84
2023-04-16T08:29:53.804Z,83.80
2023-04-16T08:32:27.119Z,84.24
2023-04-16T08:34:59.156Z,84.56
2023-04-16T08:37:30.939Z,84.47
2023-04-16T08:40:03.594Z,83.98
2023-04-16T08:42:46.886Z,84.35
2023-04-16T08:45:21.831Z,84.79
2023-04-16T08:47:54.840Z,84.03
2023-04-16T08:50:30.784Z,84.37
2023-04-16T08:53:07.642Z,83.98
2023-04-16T08:55:47.822Z,83.76
2023-04-16T08:58:23.671Z,83.97
2023-04-16T09:00:57.929Z,83.76
2023-04-16T09:03:31.523Z,83.82
2023-04-16T09:06:05.506Z,83.99
2023-04-16T09:08:41.633Z,83.85
2023-04-16T09:11:14.335Z,83.87
2023-04-16T09:13:46.332Z,84.02
2023-04-16T09:16:21.484Z,84.03
2023-04-16T09:18:55.489Z,83.90
2023-04-16T09:21:27.946Z,83.52
2023-04-16T09:24:00.828Z,83.65
2023-04-16T09:26:33.711Z,83.93
2023-04-16T09:29:05.763Z,83.15
2023-04-16T09:31:38.947Z,83.25
2023-04-16T09:34:13.090Z,83.38
2023-04-16T09:36:44.908Z,83.46
2023-04-16T09:39:24.083Z,83.69
2023-04-16T09:41:58.196Z,83.47
2023-04-16T09:44:40.531Z,83.48
2023-04-16T09:47:14.127Z,83.72
2023-04-16T09:49:49.390Z,83.79
2023-04-16T09:52:24.004Z,84.61
2023-04-16T09:54:57.420Z,85.82
2023-04-16T09:57:30.483Z,86.09
2023-04-16T10:00:10.215Z,86.79
2023-04-16T10:02:45.060Z,86.13
2023-04-16T10:05:20.885Z,86.88
2023-04-16T10:07:54.403Z,86.93
2023-04-16T10:10:27.221Z,88.10
2023-04-16T10:13:00.027Z,88.11
2023-04-16T10:15:31.995Z,88.17
2023-04-16T10:18:06.154Z,88.97
2023-04-16T10:20:38.687Z,89.39
2023-04-16T10:23:12.840Z,90.09
2023-04-16T10:25:48.759Z,89.99
2023-04-16T10:28:20.695Z,91.05
2023-04-16T10:30:54.755Z,90.57
2023-04-16T10:33:32.240Z,90.79
2023-04-16T10:36:12.449Z,90.63
2023-04-16T10:38:48.463Z,91.12
2023-04-16T10:41:21.056Z,91.05
2023-04-16T10:44:05.699Z,90.93
2023-04-16T10:46:43.442Z,91.33
2023-04-16T10:49:27.596Z,91.61
2023-04-16T10:52:03.644Z,91.81
2023-04-16T10:54:39.509Z,91.97
2023-04-16T10:57:18.835Z,92.16
2023-04-16T10:59:52.467Z,91.87
2023-04-16T11:02:29.543Z,92.62
2023-04-16T11:05:04.538Z,91.99
2023-04-16T11:07:49.602Z,92.17
2023-04-16T11:10:21.483Z,92.28
2023-04-16T11:12:55.614Z,92.58
2023-04-16T11:15:31.327Z,92.61
2023-04-16T11:18:04.377Z,92.83
2023-04-16T11:20:42.381Z,92.77
2023-04-16T11:23:16.135Z,93.07
2023-04-16T11:25:48.020Z,92.66
2023-04-16T11:28:19.868Z,92.19
2023-04-16T11:30:51.765Z,92.65
2023-04-16T11:33:23.659Z,93.47
2023-04-16T11:36:02.751Z,93.34
2023-04-16T11:38:43.003Z,93.24
2023-04-16T11:41:22.895Z,93.51
2023-04-16T11:43:55.255Z,93.19
2023-04-16T11:46:38.537Z,93.30
2023-04-16T11:49:10.680Z,93.11
2023-04-16T11:51:48.614Z,92.97
2023-04-16T11:54:27.483Z,92.83
2023-04-16T11:56:59.278Z,92.69
2023-04-16T11:59:31.157Z,92.23
2023-04-16T12:02:03.155Z,92.29
2023-04-16T12:04:36.525Z,91.89
2023-04-16T12:07:17.330Z,91.94
2023-04-16T12:09:49.068Z,92.20
2023-04-16T12:12:35.317Z,92.19
2023-04-16T12:15:08.943Z,91.74
2023-04-16T12:17:41.243Z,92.06
2023-04-16T12:20:16.289Z,92.10
2023-04-16T12:22:55.346Z,92.11
2023-04-16T12:25:29.692Z,92.04
2023-04-16T12:28:02.162Z,92.50
2023-04-16T12:30:34.396Z,92.39
2023-04-16T12:33:22.377Z,92.29
2023-04-16T12:35:54.773Z,92.22
2023-04-16T12:38:27.921Z,93.05
2023-04-16T12:41:02.186Z,92.88
2023-04-16T12:43:34.218Z,93.24
2023-04-16T12:46:06.717Z,93.49
2023-04-16T12:48:38.418Z,93.76
2023-04-16T12:51:10.278Z,93.28
2023-04-16T12:53:43.292Z,93.67
2023-04-16T12:56:15.599Z,93.05
2023-04-16T12:58:50.601Z,92.79
2023-04-16T13:01:24.310Z,92.58
2023-04-16T13:03:56.419Z,92.82
2023-04-16T13:06:28.202Z,92.75
2023-04-16T13:09:01.297Z,91.73
2023-04-16T13:11:33.381Z,91.55
2023-04-16T13:14:05.194Z,92.29
2023-04-16T13:16:38.709Z,91.50
2023-04-16T13:19:10.713Z,91.90
2023-04-16T13:21:42.770Z,91.89
2023-04-16T13:24:15.740Z,91.25
2023-04-16T13:26:47.577Z,91.51
2023-04-16T13:29:19.443Z,91.43
2023-04-16T13:31:52.472Z,91.42
2023-04-16T13:34:25.338Z,90.93
2023-04-16T13:36:57.209Z,90.68
2023-04-16T13:39:30.759Z,89.98
2023-04-16T13:42:02.705Z,88.53
2023-04-16T13:44:34.563Z,87.74
2023-04-16T13:47:06.555Z,87.62
2023-04-16T13:49:38.585Z,87.49
2023-04-16T13:52:10.641Z,87.63
2023-04-16T13:54:43.885Z,87.05
2023-04-16T13:57:15.884Z,86.18
2023-04-16T13:59:49.151Z,84.59
2023-04-16T14:02:22.049Z,82.88
2023-04-16T14:04:53.895Z,82.01
2023-04-16T14:07:27.200Z,82.14
2023-04-16T14:10:00.232Z,81.52
2023-04-16T14:12:32.598Z,81.24
2023-04-16T14:15:09.146Z,80.22
2023-04-16T14:17:41.196Z,81.22
2023-04-16T14:20:11.650Z,79.98
2023-04-16T14:22:44.190Z,80.44
2023-04-16T14:25:17.569Z,79.71
2023-04-16T14:27:49.507Z,79.63
2023-04-16T14:30:21.367Z,78.88
2023-04-16T14:32:53.704Z,79.17
2023-04-16T14:35:26.520Z,79.51
2023-04-16T14:37:58.870Z,79.19
2023-04-16T14:40:31.798Z,78.69
2023-04-16T14:43:03.719Z,78.01
2023-04-16T14:45:38.248Z,78.05
2023-04-16T14:48:12.004Z,77.44
2023-04-16T14:50:44.413Z,77.84
2023-04-16T14:53:16.764Z,78.25
2023-04-16T14:55:49.958Z,79.17
2023-04-16T14:58:21.822Z,79.97
2023-04-16T15:00:53.881Z,79.03
2023-04-16T15:03:28.630Z,79.47
2023-04-16T15:06:00.432Z,79.47
2023-04-16T15:08:32.418Z,80.04
2023-04-16T15:11:05.766Z,78.30
2023-04-16T15:13:39.386Z,76.71
2023-04-16T15:16:11.383Z,77.83
2023-04-16T15:18:43.092Z,78.62
2023-04-16T15:21:15.076Z,77.19
2023-04-16T15:23:47.133Z,77.64
2023-04-16T15:26:20.152Z,78.00
2023-04-16T15:28:53.409Z,77.91
2023-04-16T15:31:25.849Z,76.84
2023-04-16T15:34:00.737Z,76.38
2023-04-16T15:36:32.653Z,77.16
2023-04-16T15:39:05.296Z,76.97
2023-04-16T15:41:47.221Z,75.78
2023-04-16T15:44:29.210Z,74.72
2023-04-16T15:47:01.220Z,75.31
2023-04-16T15:49:34.489Z,74.40
2023-04-16T15:52:06.964Z,74.34
2023-04-16T15:54:38.908Z,75.29
2023-04-16T15:57:12.148Z,74.49
2023-04-16T15:59:52.853Z,74.82
2023-04-16T16:02:35.986Z,75.44
2023-04-16T16:05:12.751Z,76.09
2023-04-16T16:07:46.405Z,74.43
2023-04-16T16:10:18.873Z,75.33
2023-04-16T16:12:52.718Z,75.05
2023-04-16T16:15:26.103Z,75.03
2023-04-16T16:17:58.653Z,75.83
2023-04-16T16:20:30.945Z,76.12
2023-04-16T16:23:02.791Z,75.82
2023-04-16T16:25:34.746Z,74.97
2023-04-16T16:28:08.084Z,74.85
2023-04-16T16:30:40.700Z,75.22
2023-04-16T16:33:14.391Z,74.59
2023-04-16T16:35:46.042Z,74.03
2023-04-16T16:38:18.030Z,74.46
2023-04-16T16:40:49.878Z,74.94
2023-04-16T16:43:23.027Z,74.82
2023-04-16T16:45:54.628Z,75.32
2023-04-16T16:48:28.015Z,74.81
2023-04-16T16:50:59.982Z,76.02
2023-04-16T16:53:31.852Z,76.38
2023-04-16T16:56:03.693Z,75.53
2023-04-16T16:58:36.894Z,76.10
2023-04-16T17:01:08.809Z,75.47
2023-04-16T17:03:40.544Z,75.85
2023-04-16T17:06:14.336Z,75.92
2023-04-16T17:08:47.402Z,75.87
2023-04-16T17:11:19.859Z,75.63
2023-04-16T17:13:52.786Z,74.72
2023-04-16T17:16:24.788Z,75.26
2023-04-16T17:18:57.124Z,74.80
2023-04-16T17:21:29.013Z,75.67
2023-04-16T17:24:00.986Z,75.50
2023-04-16T17:26:32.913Z,75.87
2023-04-16T17:29:06.169Z,75.99
2023-04-16T17:31:38.586Z,76.08
2023-04-16T17:34:10.688Z,76.17
2023-04-16T17:36:42.459Z,76.27
2023-04-16T17:39:14.502Z,76.34
2023-04-16T17:41:46.400Z,76.11
2023-04-16T17:44:19.411Z,76.31
2023-04-16T17:46:52.686Z,75.57
2023-04-16T17:49:24.652Z,76.11
2023-04-16T17:51:57.375Z,76.32
2023-04-16T17:54:29.501Z,75.95
2023-04-16T17:57:02.070Z,76.41
2023-04-16T17:59:35.914Z,76.34
2023-04-16T18:02:08.341Z,75.96
2023-04-16T18:04:40.654Z,77.03
2023-04-16T18:07:12.709Z,76.49
2023-04-16T18:09:44.661Z,76.60
2023-04-16T18:12:16.522Z,76.64
2023-04-16T18:14:49.678Z,76.25
2023-04-16T18:17:22.784Z,76.60
2023-04-16T18:19:54.458Z,77.02
2023-04-16T18:22:28.206Z,76.93
2023-04-16T18:25:01.706Z,76.86
2023-04-16T18:27:31.744Z,76.76
2023-04-16T18:30:05.152Z,77.05
2023-04-16T18:32:37.644Z,76.95
2023-04-16T18:35:10.208Z,77.20
2023-04-16T18:37:42.102Z,77.31
2023-04-16T18:40:15.433Z,77.30
2023-04-16T18:42:47.474Z,77.41
2023-04-16T18:45:21.983Z,77.56
2023-04-16T18:47:53.835Z,77.69
2023-04-16T18:50:25.692Z,77.61
2023-04-16T18:52:57.665Z,77.46
2023-04-16T18:55:30.108Z,77.79
2023-04-16T18:58:03.382Z,77.55
2023-04-16T19:00:36.400Z,78.18
2023-04-16T19:03:09.781Z,77.77
2023-04-16T19:05:41.598Z,78.28
2023-04-16T19:08:13.420Z,78.19
2023-04-16T19:10:47.290Z,78.31
2023-04-16T19:13:20.239Z,78.33
2023-04-16T19:15:58.023Z,78.30
2023-04-16T19:18:29.798Z,78.85
2023-04-16T19:21:04.593Z,78.70
2023-04-16T19:23:36.513Z,78.54
2023-04-16T19:26:08.346Z,78.38
2023-04-16T19:28:42.414Z,78.55
2023-04-16T19:31:15.583Z,78.60
2023-04-16T19:33:47.282Z,78.88
2023-04-16T19:36:19.179Z,79.05
2023-04-16T19:38:51.249Z,78.70
2023-04-16T19:41:23.180Z,79.02
2023-04-16T19:43:57.139Z,78.68
2023-04-16T19:46:30.396Z,78.69
2023-04-16T19:49:02.302Z,79.17
2023-04-16T19:51:34.697Z,78.87
2023-04-16T19:54:06.797Z,78.77
2023-04-16T19:56:38.364Z,78.89
2023-04-16T19:59:10.468Z,78.54
2023-04-16T20:01:43.680Z,79.35
2023-04-16T20:04:15.893Z,78.87
2023-04-16T20:06:47.502Z,79.41
2023-04-16T20:09:20.171Z,79.94
2023-04-16T20:11:51.898Z,79.76
2023-04-16T20:14:23.721Z,79.52
2023-04-16T20:16:57.026Z,79.95
2023-04-16T20:19:33.633Z,79.91
2023-04-16T20:22:06.523Z,80.32
2023-04-16T20:24:38.585Z,79.60
2023-04-16T20:27:10.402Z,80.09
2023-04-16T20:29:42.361Z,79.62
2023-04-16T20:32:15.632Z,79.42
2023-04-16T20:34:48.783Z,79.03
2023-04-16T20:37:20.500Z,78.92
2023-04-16T20:39:54.047Z,79.48
2023-04-16T20:42:26.302Z,79.42
2023-04-16T20:45:00.686Z,79.64
2023-04-16T20:47:34.840Z,79.13
2023-04-16T20:50:07.256Z,79.22
2023-04-16T20:52:38.791Z,79.72
2023-04-16T20:55:10.969Z,79.78
2023-04-16T20:57:42.812Z,79.84
2023-04-16T21:00:16.830Z,79.73
2023-04-16T21:02:49.920Z,80.17
2023-04-16T21:05:21.639Z,80.07
2023-04-16T21:07:55.711Z,80.27
2023-04-16T21:10:27.750Z,80.29
2023-04-16T21:12:59.634Z,80.54
2023-04-16T21:15:31.781Z,80.32
2023-04-16T21:18:05.559Z,80.56
2023-04-16T21:20:38.062Z,80.71
2023-04-16T21:23:10.315Z,81.30
2023-04-16T21:25:42.148Z,81.39
2023-04-16T21:28:13.985Z,81.75
2023-04-16T21:30:46.251Z,82.06
2023-04-16T21:33:19.447Z,81.66
2023-04-16T21:35:55.940Z,82.41
2023-04-16T21:38:27.799Z,82.80
2023-04-16T21:40:59.634Z,82.79
2023-04-16T21:43:32.099Z,82.25
2023-04-16T21:46:04.278Z,82.98
2023-04-16T21:48:37.224Z,82.68
2023-04-16T21:51:09.988Z,82.66
2023-04-16T21:53:41.846Z,82.73
2023-04-16T21:56:13.717Z,82.54
2023-04-16T21:58:45.558Z,82.57
2023-04-16T22:01:17.577Z,82.14
2023-04-16T22:03:51.985Z,82.23
2023-04-16T22:06:24.237Z,82.67
2023-04-16T22:08:58.775Z,82.16
2023-04-16T22:11:30.579Z,82.51
2023-04-16T22:14:08.046Z,82.18
2023-04-16T22:16:40.147Z,81.93
2023-04-16T22:19:14.056Z,82.45
2023-04-16T22:21:45.737Z,81.96
2023-04-16T22:24:17.528Z,81.73
2023-04-16T22:26:49.417Z,81.94
2023-04-16T22:29:21.285Z,82.09
2023-04-16T22:31:53.279Z,81.28
2023-04-16T22:34:26.207Z,81.42
2023-04-16T22:36:58.055Z,81.48
2023-04-16T22:39:30.082Z,81.60
2023-04-16T22:42:01.904Z,82.35
2023-04-16T22:44:33.715Z,82.24
2023-04-16T22:47:05.631Z,81.95
2023-04-16T22:49:38.708Z,81.62
2023-04-16T22:52:10.318Z,82.07
2023-04-16T22:54:42.125Z,81.88
2023-04-16T22:57:14.320Z,82.20
2023-04-16T22:59:46.222Z,81.89
2023-04-16T23:02:17.923Z,81.74
2023-04-16T23:04:51.234Z,81.88
2023-04-16T23:07:23.101Z,82.35
2023-04-16T23:09:54.864Z,82.17
2023-04-16T23:12:26.697Z,82.05
2023-04-16T23:15:00.365Z,81.66
2023-04-16T23:17:32.858Z,81.49
2023-04-16T23:20:07.563Z,82.06
2023-04-16T23:22:39.581Z,81.75
2023-04-16T23:25:13.373Z,82.39
2023-04-16T23:27:45.225Z,81.93
2023-04-16T23:30:18.010Z,81.77
2023-04-16T23:32:49.978Z,82.49
2023-04-16T23:35:23.262Z,82.02
2023-04-16T23:37:54.873Z,82.49
2023-04-16T23:40:26.785Z,82.34
2023-04-16T23:42:58.601Z,82.19
2023-04-16T23:45:30.491Z,82.15
2023-04-16T23:48:02.507Z,81.80
2023-04-16T23:50:35.812Z,81.86
2023-04-16T23:53:07.633Z,81.92
2023-04-16T23:55:40.179Z,82.34
2023-04-16T23:58:12.011Z,82.36
